WAOO/BDJ METAR and TAF weather

Enter ICAO airport designator
Station Type Date Time Source
WAOO METAR 2020/01/27 16:30 UTC NOAA

WAOO 271630Z AUTO 22001KT 9999 OVC140 26/26 Q1009


Station Type Date Time Source
WAOO Decoded METAR 2020/01/27 16:30 UTC NOAA

Station name not available
Jan 27, 2020 - 11:30 AM EST / 2020.01.27 1630 UTC
Wind: from the SW (220 degrees) at 1 MPH (1 KT):0
Visibility: greater than 7 mile(s):0
Sky conditions: overcast
Temperature: 78 F (26 C)
Dew Point: 78 F (26 C)
Relative Humidity: 100%
Pressure (altimeter): 29.80 in. Hg (1009 hPa)
ob: WAOO 271630Z AUTO 22001KT 9999 OVC140 26/26 Q1009
cycle: 16

Station Type Date Time Source
WAOO TAF 2020/01/27 18:00 UTC NOAA

TAF WAOO 271700Z 2718/2818 28006KT 9999 SCT018 PROB40
TEMPO 2807/2810 7000 RA FEW016CB

Example: see airport list